Tokio, Japonia

08:43 AM JST on ianuarie 22, 2017 (GMT +0900)
Chemin de Pacoty | | Change Station

Elev 22 ft 35.57 °N, 139.71 °E | Updated 1 minute ago

Cer senin
Cer senin
40.3 °F
Feels Like 40 °F
N
0.6
Vânt variabil Vânt from NNV
Gusts 1.2 mph

astăzi
High -- | Low -- °F
--% Chance of Precip.
Ieri
High -- | Low -- °F
Precip. -- inch
Presiunea 30.01 inch
Vizibilitatea 6.2 mile
Nori Few 3000 ft
Vânt rece 40 °F
Punctul de rouă 24 °F
Umiditatea 53%
Precipitaţii Not available.
Adâncimea zăpezii Not available.
6:47 AM 4:58 PM
Semilună în descreştere, 31% visible
METAR RJTT 212330Z 33008KT 9999 FEW030 04/M05 Q1016 BECMG 22012KT RMK 1CU030 A3000
Presiunea 30.01 inch
Vizibilitatea 6.2 mile
Nori Few 3000 ft
Vânt rece 40 °F
Punctul de rouă 24 °F
Umiditatea 53%
Precipitaţii Not available.
Adâncimea zăpezii Not available.
6:47 AM 4:58 PM
Semilună în descreştere, 31% visible
METAR RJTT 212330Z 33008KT 9999 FEW030 04/M05 Q1016 BECMG 22012KT RMK 1CU030 A3000

Get Your Daily Forecast Email!

Thanks for signing up!

Be on the lookout for a verification email in your inbox.

You'll start receiving the daily forecast at 8 AM.

×

10-Day Weather Forecast

No radar image for this location.
×

Almanac

Astronomie

Jan. 22, 2017 Răsărit Apus
Timpul Actual
Crepusculul Civil
Crepusculul nautic
Răsărit Astronomic
Luna
Durata zilei lumină
Lungimea zilei
Tomorrow will be .
, % of the Moon is Illuminated

Extremele de azi

Country Highs Country Lows

Community

WunderPhotos

Upload Photos

1,962,540 photos uploaded!

WunderBlog® & News

Nearby

Calitatea aerului

  Calitatea aerului Index de calitate a aerului Poluat
Not available.

Adâncimea zapezii

Station Depth Elevation

Earthquake Activity

Oraş Distance Mag. Time & Date
Minimum magnitude displayed is 2.5.

Coastal Water Temperatures

Locul Temperatura

Stations

Nearby Weather Stations

Locaţia staţiei Temp Vânt rece Punctul de rouă Umiditatea Vânt Precip. Elev Actualizare Type